Messwerte DB0GH-14

Temperatur- und Luftfeuchte-Messung in meinem "Sommerbüro"

Die Temperatur wird mit einem DS18S22 gemessen. Die Luftfeuchte mit einem DHT-21. Ein Arduino generiert daraus APRS-Telemetrie-Pakete und sendet die dann über ein Kenwood TH-D7E mit eingebauten TNC auf 144,800 MHz.

APRS-Wert
EQNS-Parameter a,b,c
aktuellste Messung:06.11.16 17:35:44 UhrTemperatur4.81Grad C298100.01-25
Luftfeuchte90.6%90600.10
Temperatur DHT215.5Grad C305000.01-25
EQNS-Zeitstempel: 06.11.16 17:17:21 Uhr
Statistik:

Anzahl der Telemetrie-Datensätze29975Zeitraum:07.10.16 20:22:49 ... 06.11.16 17:35:44
Min/Max-WerteTemperatur-0.5621.5Grad C
Luftfeuchte44.898.6%
Temperatur DHT21-0.423Grad C


Telemetrie-Daten [letzte 10 Datensätze]:

Temperatur
Luftfeuchte
Temperatur DHT21
06.11.16 17:35:444.81Grad C90.6%5.5Grad C
06.11.16 17:32:424.88Grad C90%5.9Grad C
06.11.16 17:31:414.94Grad C90.4%5.6Grad C
06.11.16 17:30:494.94Grad C90%6Grad C
06.11.16 17:29:375Grad C90%6Grad C
06.11.16 17:28:375Grad C90.3%5.6Grad C
06.11.16 17:27:375Grad C89.9%6.1Grad C
06.11.16 17:26:375Grad C90%6Grad C
06.11.16 17:25:335Grad C89.9%6Grad C
06.11.16 17:24:325.06Grad C90.1%5.8Grad C
06.11.16 17:23:315.13Grad C89.9%5.8Grad C
06.11.16 17:22:305.19Grad C90.1%5.9Grad C
06.11.16 17:21:305.19Grad C90%6.1Grad C
06.11.16 17:20:365.19Grad C89.7%6.2Grad C
06.11.16 17:19:275.25Grad C89.3%6.2Grad C
06.11.16 17:18:265.25Grad C89.7%5.8Grad C
06.11.16 17:17:255.25Grad C89.6%5.9Grad C
06.11.16 17:16:215.31Grad C90%5.9Grad C
06.11.16 17:14:205.31Grad C90.3%5.8Grad C
06.11.16 17:13:185.31Grad C89.6%5.9Grad C
06.11.16 17:12:165.38Grad C89.5%6Grad C
06.11.16 17:11:155.38Grad C89.1%6.1Grad C
06.11.16 17:10:165.38Grad C88.8%6.2Grad C
06.11.16 17:09:135.44Grad C88.7%6.4Grad C
06.11.16 17:08:125.5Grad C88.7%6.5Grad C
06.11.16 17:07:115.44Grad C88.7%6.6Grad C
06.11.16 17:06:115.5Grad C88.8%6.4Grad C
06.11.16 17:05:095.5Grad C88.3%6.5Grad C
06.11.16 17:03:075.56Grad C88.5%6.6Grad C
06.11.16 17:02:135.63Grad C88.5%6.5Grad C
06.11.16 17:01:185.63Grad C88.4%6.3Grad C
06.11.16 17:00:165.69Grad C88.6%6.5Grad C
06.11.16 16:59:025.69Grad C88.5%6.7Grad C
06.11.16 16:58:015.75Grad C88.3%6.9Grad C
06.11.16 16:57:005.81Grad C88.6%6.7Grad C
06.11.16 16:55:595.88Grad C88.9%6.4Grad C
06.11.16 16:49:535.94Grad C89.4%6.6Grad C
06.11.16 16:48:526Grad C89%7Grad C
06.11.16 16:47:506Grad C89.1%7Grad C
06.11.16 16:46:506.06Grad C89.9%6.7Grad C
06.11.16 16:45:496.13Grad C89.6%6.9Grad C
06.11.16 16:44:486.13Grad C89.8%6.7Grad C
06.11.16 16:43:476.13Grad C89.5%6.8Grad C
06.11.16 16:42:456.13Grad C89.5%7.3Grad C
06.11.16 16:41:456.13Grad C89.4%6.9Grad C
06.11.16 16:40:446.13Grad C89.2%6.9Grad C
06.11.16 16:39:426.13Grad C89.1%7.2Grad C
06.11.16 16:38:416.19Grad C89.3%7Grad C
06.11.16 16:37:406.25Grad C89.1%6.9Grad C
06.11.16 16:36:426.25Grad C89.1%7.1Grad C

APRS-Telemetrie-Rohdaten anzeigen

zurück